Time;durP1;ratioP1;P1;durP2;ratioP2;P2;SDS_P1;SDS_P2;PMS_P1;PMS_P2;Temp;Humidity;BMP_temperature;BMP_pressure;BME280_temperature;BME280_humidity;BME280_pressure;Samples;Min_cycle;Max_cycle;Signal;HPM_P1;HPM_P2
2021/07/04 00:02:05;;;;;;;36.45;7.50;;;;;;;;;;5075589;28;20012;-36
2021/07/04 00:04:32;;;;;;;36.95;8.50;;;;;;;;;;5081808;28;20588;-35
2021/07/04 00:06:59;;;;;;;41.03;7.95;;;;;;;;;;5080156;28;20019;-36
2021/07/04 00:09:26;;;;;;;42.63;8.15;;;;;;;;;;5061311;28;20024;-39
2021/07/04 00:11:54;;;;;;;31.17;7.18;;;;;;;;;;5077127;28;20017;-42
2021/07/04 00:14:21;;;;;;;38.20;6.60;;;;;;;;;;5090968;28;20020;-36
2021/07/04 00:16:48;;;;;;;45.65;8.20;;;;;;;;;;5090665;28;20081;-39
2021/07/04 00:19:15;;;;;;;34.05;7.50;;;;;;;;;;5090169;28;20024;-34
2021/07/04 00:21:42;;;;;;;33.65;6.95;;;;;;;;;;5081382;28;20124;-46
2021/07/04 00:24:09;;;;;;;45.33;8.52;;;;;;;;;;5090657;28;20081;-44
2021/07/04 00:26:36;;;;;;;28.15;6.63;;;;;;;;;;5081144;28;20028;-43
2021/07/04 00:29:03;;;;;;;37.65;7.63;;;;;;;;;;5081547;28;20012;-35
2021/07/04 00:31:30;;;;;;;41.63;7.72;;;;;;;;;;5084818;28;20035;-45
2021/07/04 00:33:57;;;;;;;35.88;7.35;;;;;;;;;;5071089;28;20016;-42
2021/07/04 00:36:24;;;;;;;46.08;7.35;;;;;;;;;;5080682;28;20016;-40
2021/07/04 00:38:51;;;;;;;33.55;7.60;;;;;;;;;;5080556;28;20062;-46
2021/07/04 00:41:19;;;;;;;39.03;7.32;;;;;;;;;;5082146;28;20044;-40
2021/07/04 00:43:48;;;;;;;36.38;6.78;;;;;;;;;;5076010;28;20521;-33
2021/07/04 00:46:16;;;;;;;34.58;7.45;;;;;;;;;;5082524;28;20024;-38
2021/07/04 00:48:43;;;;;;;38.65;7.07;;;;;;;;;;5065135;28;20045;-44
2021/07/04 00:51:10;;;;;;;29.95;6.78;;;;;;;;;;5083921;28;20020;-39
2021/07/04 00:53:37;;;;;;;25.58;5.85;;;;;;;;;;5079288;28;20070;-39
2021/07/04 00:56:05;;;;;;;33.35;6.97;;;;;;;;;;5094004;28;20401;-37
2021/07/04 00:58:32;;;;;;;33.78;6.95;;;;;;;;;;5093426;28;20491;-37
2021/07/04 01:00:59;;;;;;;28.15;5.78;;;;;;;;;;5093534;28;20050;-41
2021/07/04 01:03:26;;;;;;;42.58;6.82;;;;;;;;;;5071181;28;20472;-46
2021/07/04 01:05:53;;;;;;;26.55;5.75;;;;;;;;;;5094400;28;20039;-40
2021/07/04 01:08:20;;;;;;;35.10;6.30;;;;;;;;;;5094319;28;20069;-41
2021/07/04 01:10:48;;;;;;;30.98;6.32;;;;;;;;;;5093830;28;20065;-33
2021/07/04 01:13:15;;;;;;;29.42;6.35;;;;;;;;;;5085666;28;20020;-43
2021/07/04 01:15:43;;;;;;;32.00;5.95;;;;;;;;;;5094116;28;20024;-45
2021/07/04 01:18:10;;;;;;;27.33;5.50;;;;;;;;;;5094196;28;20042;-46
2021/07/04 01:20:38;;;;;;;30.17;5.10;;;;;;;;;;5093626;28;20024;-42
2021/07/04 01:23:09;;;;;;;26.48;5.53;;;;;;;;;;5088636;28;20040;-40
2021/07/04 01:25:40;;;;;;;26.30;6.03;;;;;;;;;;5094050;28;20062;-46
2021/07/04 01:28:07;;;;;;;18.92;5.15;;;;;;;;;;5093945;28;20483;-42
2021/07/04 01:30:35;;;;;;;23.83;5.40;;;;;;;;;;5093476;28;20404;-41
2021/07/04 01:33:02;;;;;;;24.65;5.40;;;;;;;;;;5090741;28;20024;-33
2021/07/04 01:35:29;;;;;;;23.55;5.28;;;;;;;;;;5072270;28;20032;-35
2021/07/04 01:37:56;;;;;;;27.20;5.35;;;;;;;;;;5073328;28;20025;-36
2021/07/04 01:40:24;;;;;;;26.25;5.60;;;;;;;;;;5084224;28;20028;-37
2021/07/04 01:42:51;;;;;;;27.02;5.78;;;;;;;;;;5072999;28;20127;-34
2021/07/04 01:45:19;;;;;;;28.25;5.75;;;;;;;;;;5083377;28;20071;-33
2021/07/04 01:47:49;;;;;;;17.05;4.82;;;;;;;;;;5093205;28;20062;-35
2021/07/04 01:50:35;;;;;;;24.38;5.70;;;;;;;;;;5093055;28;20083;-39
2021/07/04 01:53:02;;;;;;;24.58;4.97;;;;;;;;;;5093128;28;20119;-35
2021/07/04 01:55:29;;;;;;;20.00;4.30;;;;;;;;;;5070359;28;20432;-34
2021/07/04 01:57:57;;;;;;;18.00;4.47;;;;;;;;;;5092788;28;20058;-36
2021/07/04 02:00:25;;;;;;;25.63;4.95;;;;;;;;;;5089123;28;20028;-36
2021/07/04 02:02:54;;;;;;;27.20;5.40;;;;;;;;;;5243208;22;20056;-30
2021/07/04 02:05:22;;;;;;;40.20;5.55;;;;;;;;;;5047265;28;20103;-36
2021/07/04 02:07:49;;;;;;;24.55;4.57;;;;;;;;;;5063881;28;20021;-32
2021/07/04 02:10:18;;;;;;;21.75;4.18;;;;;;;;;;5065078;28;20024;-31
2021/07/04 02:12:45;;;;;;;21.02;4.82;;;;;;;;;;5065238;28;20660;-33
2021/07/04 02:15:13;;;;;;;24.52;5.15;;;;;;;;;;5047357;28;20462;-30
2021/07/04 02:17:41;;;;;;;20.55;4.30;;;;;;;;;;5068653;28;20017;-30
2021/07/04 02:20:24;;;;;;;15.82;3.65;;;;;;;;;;5067455;28;20090;-30
2021/07/04 02:22:51;;;;;;;34.83;4.85;;;;;;;;;;5068456;28;20047;-31
2021/07/04 02:25:18;;;;;;;23.45;4.15;;;;;;;;;;5067710;28;20028;-33
2021/07/04 02:27:46;;;;;;;23.38;4.85;;;;;;;;;;5065478;28;20025;-30
2021/07/04 02:30:13;;;;;;;17.33;4.47;;;;;;;;;;5068635;28;20104;-33
2021/07/04 02:32:40;;;;;;;11.55;3.78;;;;;;;;;;5064420;28;20480;-30
2021/07/04 02:35:07;;;;;;;18.50;4.63;;;;;;;;;;5066986;28;20055;-32
2021/07/04 02:37:34;;;;;;;14.57;3.75;;;;;;;;;;5066200;28;20103;-30
2021/07/04 02:40:01;;;;;;;14.68;4.10;;;;;;;;;;5066714;28;20027;-30
2021/07/04 02:42:28;;;;;;;18.05;4.50;;;;;;;;;;5067530;28;20023;-31
2021/07/04 02:44:58;;;;;;;16.33;3.80;;;;;;;;;;5049782;28;20047;-30
2021/07/04 02:47:25;;;;;;;16.55;3.83;;;;;;;;;;5067490;28;20027;-31
2021/07/04 02:49:52;;;;;;;17.33;3.40;;;;;;;;;;5044178;28;20044;-30
2021/07/04 02:52:19;;;;;;;19.13;3.20;;;;;;;;;;5069562;28;20143;-32
2021/07/04 02:54:46;;;;;;;17.60;3.58;;;;;;;;;;5062563;28;20024;-30
2021/07/04 02:57:14;;;;;;;18.73;4.30;;;;;;;;;;5045641;28;20017;-30
2021/07/04 02:59:41;;;;;;;20.45;3.95;;;;;;;;;;5062516;28;20051;-31
2021/07/04 03:02:08;;;;;;;20.63;3.80;;;;;;;;;;5063436;28;20021;-46
2021/07/04 03:04:35;;;;;;;21.77;4.32;;;;;;;;;;5065532;28;20078;-44
2021/07/04 03:07:02;;;;;;;18.10;3.47;;;;;;;;;;5067234;28;20024;-35
2021/07/04 03:09:29;;;;;;;14.32;3.10;;;;;;;;;;5063603;28;20028;-32
2021/07/04 03:11:56;;;;;;;14.98;3.55;;;;;;;;;;5056480;28;20021;-35
2021/07/04 03:14:23;;;;;;;16.65;3.53;;;;;;;;;;5052318;28;20032;-33
2021/07/04 03:16:50;;;;;;;13.68;3.47;;;;;;;;;;5052068;28;20025;-33
2021/07/04 03:19:17;;;;;;;18.75;3.20;;;;;;;;;;5053634;28;20024;-36
2021/07/04 03:21:44;;;;;;;12.73;3.22;;;;;;;;;;5053993;28;20032;-33
2021/07/04 03:24:12;;;;;;;18.05;3.25;;;;;;;;;;5054336;28;20060;-34
2021/07/04 03:26:41;;;;;;;13.00;3.40;;;;;;;;;;5052078;28;20494;-35
2021/07/04 03:29:08;;;;;;;14.32;3.60;;;;;;;;;;5051991;28;20025;-40
2021/07/04 03:31:35;;;;;;;10.07;3.08;;;;;;;;;;5050333;28;20437;-38
2021/07/04 03:34:02;;;;;;;8.52;2.85;;;;;;;;;;5056019;28;20024;-33
2021/07/04 03:36:29;;;;;;;14.93;2.67;;;;;;;;;;5058388;28;20032;-34
2021/07/04 03:39:00;;;;;;;13.35;3.13;;;;;;;;;;5043867;28;20384;-42
2021/07/04 03:41:27;;;;;;;25.10;3.80;;;;;;;;;;5050876;28;20021;-42
2021/07/04 03:43:54;;;;;;;20.58;3.30;;;;;;;;;;5053490;28;20036;-34
2021/07/04 03:46:22;;;;;;;14.43;3.25;;;;;;;;;;5051469;28;20035;-38
2021/07/04 03:48:49;;;;;;;17.55;3.38;;;;;;;;;;5058416;28;20040;-35
2021/07/04 03:51:16;;;;;;;12.07;2.65;;;;;;;;;;5040349;28;20021;-35
2021/07/04 03:53:43;;;;;;;14.68;3.13;;;;;;;;;;5055571;28;20020;-39
2021/07/04 03:56:10;;;;;;;11.73;2.88;;;;;;;;;;5060197;28;20070;-34
2021/07/04 03:58:37;;;;;;;10.75;2.70;;;;;;;;;;5057297;28;20033;-33
2021/07/04 04:01:04;;;;;;;12.15;2.58;;;;;;;;;;5054760;28;20408;-36
2021/07/04 04:03:31;;;;;;;10.02;2.42;;;;;;;;;;5059358;28;20072;-33
2021/07/04 04:05:59;;;;;;;15.38;2.90;;;;;;;;;;5058798;28;20119;-34
2021/07/04 04:08:26;;;;;;;13.93;2.85;;;;;;;;;;5067032;28;20024;-38
2021/07/04 04:10:53;;;;;;;14.90;2.58;;;;;;;;;;5063835;28;20086;-36
2021/07/04 04:13:20;;;;;;;15.60;2.95;;;;;;;;;;5068561;28;20162;-33
2021/07/04 04:15:47;;;;;;;15.35;2.72;;;;;;;;;;5073501;28;20023;-33
2021/07/04 04:18:15;;;;;;;16.05;2.83;;;;;;;;;;5067487;28;20031;-38
2021/07/04 04:20:42;;;;;;;10.57;2.75;;;;;;;;;;5075119;28;20100;-35
2021/07/04 04:23:09;;;;;;;17.98;3.30;;;;;;;;;;5074457;28;20032;-35
2021/07/04 04:25:36;;;;;;;14.27;2.90;;;;;;;;;;5074644;28;20032;-36
2021/07/04 04:28:04;;;;;;;9.35;2.22;;;;;;;;;;5070303;28;20360;-38
2021/07/04 04:30:35;;;;;;;14.60;2.65;;;;;;;;;;5074981;28;20107;-38
2021/07/04 04:33:02;;;;;;;16.35;2.38;;;;;;;;;;5074305;28;20017;-35
2021/07/04 04:35:30;;;;;;;24.10;2.40;;;;;;;;;;5074904;28;20060;-36
2021/07/04 04:37:57;;;;;;;26.20;2.50;;;;;;;;;;5070400;28;20021;-34
2021/07/04 04:40:24;;;;;;;8.43;2.53;;;;;;;;;;5075167;28;20028;-35
2021/07/04 04:42:52;;;;;;;12.55;2.80;;;;;;;;;;5074636;28;20024;-39
2021/07/04 04:45:19;;;;;;;18.00;2.90;;;;;;;;;;5074534;28;20037;-37
2021/07/04 04:47:46;;;;;;;12.63;2.72;;;;;;;;;;5070387;28;20087;-33
2021/07/04 04:50:13;;;;;;;31.58;2.92;;;;;;;;;;5075486;28;20422;-45
2021/07/04 04:52:40;;;;;;;17.73;2.53;;;;;;;;;;5056870;28;20515;-34
2021/07/04 04:55:08;;;;;;;10.75;2.38;;;;;;;;;;5062366;28;20037;-41
2021/07/04 04:57:36;;;;;;;7.43;2.30;;;;;;;;;;5055729;28;20021;-38
2021/07/04 05:00:06;;;;;;;10.27;2.38;;;;;;;;;;5074401;28;20025;-36
2021/07/04 05:02:33;;;;;;;8.15;2.40;;;;;;;;;;5074306;28;20032;-34
2021/07/04 05:05:00;;;;;;;8.90;1.98;;;;;;;;;;5074671;28;20028;-41
2021/07/04 05:07:27;;;;;;;12.13;2.10;;;;;;;;;;5073138;28;20024;-35
2021/07/04 05:09:54;;;;;;;11.20;2.05;;;;;;;;;;5071444;28;20035;-34
2021/07/04 05:12:21;;;;;;;6.13;1.75;;;;;;;;;;5074660;28;20029;-36
2021/07/04 05:14:48;;;;;;;12.18;2.60;;;;;;;;;;5074535;28;20108;-32
2021/07/04 05:17:16;;;;;;;8.25;2.22;;;;;;;;;;5074344;28;20078;-40
2021/07/04 05:19:44;;;;;;;8.27;2.00;;;;;;;;;;5070171;28;20054;-33
2021/07/04 05:22:12;;;;;;;7.68;2.03;;;;;;;;;;5074390;28;20024;-35
2021/07/04 05:24:39;;;;;;;8.23;1.90;;;;;;;;;;5073864;28;20093;-36
2021/07/04 05:27:06;;;;;;;10.25;2.42;;;;;;;;;;5074036;28;20025;-37
2021/07/04 05:29:33;;;;;;;9.35;2.40;;;;;;;;;;5069748;28;20035;-36
2021/07/04 05:32:00;;;;;;;9.20;2.60;;;;;;;;;;5074135;28;20035;-37
2021/07/04 05:34:27;;;;;;;11.85;2.20;;;;;;;;;;5074396;28;20074;-38
2021/07/04 05:36:55;;;;;;;5.80;1.60;;;;;;;;;;5074002;28;20029;-38
2021/07/04 05:39:27;;;;;;;6.45;1.98;;;;;;;;;;5069439;28;20036;-37
2021/07/04 05:41:54;;;;;;;4.18;1.63;;;;;;;;;;5073991;28;20020;-37
2021/07/04 05:44:21;;;;;;;9.43;2.10;;;;;;;;;;5073788;28;20029;-36
2021/07/04 05:46:49;;;;;;;7.88;2.10;;;;;;;;;;5073946;28;20025;-36
2021/07/04 05:49:16;;;;;;;5.93;2.10;;;;;;;;;;5069319;28;20070;-40
2021/07/04 05:51:43;;;;;;;7.47;1.70;;;;;;;;;;5074120;28;20021;-40
2021/07/04 05:54:10;;;;;;;8.40;1.83;;;;;;;;;;5073603;28;20483;-37
2021/07/04 05:56:38;;;;;;;8.27;1.95;;;;;;;;;;5073665;28;20040;-45
2021/07/04 05:59:05;;;;;;;6.93;1.60;;;;;;;;;;5069453;28;20787;-38
2021/07/04 06:01:32;;;;;;;4.72;1.70;;;;;;;;;;5073424;28;20153;-41
2021/07/04 06:03:59;;;;;;;4.97;1.70;;;;;;;;;;5073350;28;20052;-39
2021/07/04 06:06:26;;;;;;;6.20;1.80;;;;;;;;;;5073663;28;20025;-38
2021/07/04 06:08:53;;;;;;;5.72;1.77;;;;;;;;;;5071877;28;20074;-32
2021/07/04 06:11:20;;;;;;;5.45;1.75;;;;;;;;;;5069985;28;20107;-40
2021/07/04 06:13:47;;;;;;;4.85;1.50;;;;;;;;;;5074058;28;20028;-38
2021/07/04 06:16:14;;;;;;;5.85;2.00;;;;;;;;;;5073339;28;20024;-43
2021/07/04 06:18:42;;;;;;;8.70;2.08;;;;;;;;;;5073304;28;20012;-38
2021/07/04 06:21:09;;;;;;;6.30;1.77;;;;;;;;;;5068784;28;20086;-39
2021/07/04 06:23:36;;;;;;;4.53;1.67;;;;;;;;;;5073197;28;20563;-36
2021/07/04 06:26:03;;;;;;;4.30;1.60;;;;;;;;;;5073350;28;20373;-38
2021/07/04 06:28:30;;;;;;;6.25;1.83;;;;;;;;;;5073350;28;20025;-39
2021/07/04 06:30:57;;;;;;;5.22;1.42;;;;;;;;;;5068197;28;20774;-39
2021/07/04 06:33:24;;;;;;;5.63;1.83;;;;;;;;;;5073071;28;20048;-35
2021/07/04 06:35:51;;;;;;;4.68;1.77;;;;;;;;;;5073323;28;20480;-37
2021/07/04 06:38:18;;;;;;;6.32;2.03;;;;;;;;;;5072079;28;20028;-37
2021/07/04 06:40:45;;;;;;;5.85;1.50;;;;;;;;;;5068264;28;20029;-36
2021/07/04 06:43:12;;;;;;;7.22;1.58;;;;;;;;;;5072638;28;20402;-38
2021/07/04 06:45:39;;;;;;;7.32;1.80;;;;;;;;;;5072829;28;20402;-41
2021/07/04 06:48:06;;;;;;;8.10;1.80;;;;;;;;;;5072451;28;20017;-38
2021/07/04 06:50:33;;;;;;;4.35;1.42;;;;;;;;;;5068154;28;20036;-36
2021/07/04 06:53:00;;;;;;;4.78;1.70;;;;;;;;;;5072583;28;20021;-37
2021/07/04 06:55:27;;;;;;;8.75;1.55;;;;;;;;;;5072494;28;20553;-39
2021/07/04 06:57:54;;;;;;;4.63;1.77;;;;;;;;;;5072641;28;20222;-36
2021/07/04 07:00:22;;;;;;;3.42;1.58;;;;;;;;;;5069265;28;20044;-40
2021/07/04 07:02:49;;;;;;;6.13;1.90;;;;;;;;;;5070419;28;20392;-41
2021/07/04 07:05:16;;;;;;;6.28;1.50;;;;;;;;;;5072686;28;20042;-36
2021/07/04 07:07:43;;;;;;;4.80;1.65;;;;;;;;;;5072337;28;20048;-42
2021/07/04 07:10:12;;;;;;;4.97;1.80;;;;;;;;;;5071839;28;20103;-35
2021/07/04 07:12:39;;;;;;;3.67;1.58;;;;;;;;;;5068058;28;20024;-36
2021/07/04 07:15:07;;;;;;;5.20;1.92;;;;;;;;;;5072469;28;20028;-37
2021/07/04 07:17:34;;;;;;;2.70;1.20;;;;;;;;;;5072280;28;20024;-36
2021/07/04 07:20:01;;;;;;;4.25;1.48;;;;;;;;;;5072307;28;20411;-35
2021/07/04 07:22:28;;;;;;;6.03;1.60;;;;;;;;;;5067490;28;20028;-39
2021/07/04 07:24:55;;;;;;;7.28;1.67;;;;;;;;;;5072136;28;20041;-37
2021/07/04 07:27:22;;;;;;;4.72;1.42;;;;;;;;;;5072085;28;20093;-36
2021/07/04 07:29:49;;;;;;;9.10;1.55;;;;;;;;;;5072260;28;20079;-38
2021/07/04 07:32:16;;;;;;;4.20;1.40;;;;;;;;;;5067059;28;20028;-36
2021/07/04 07:34:43;;;;;;;4.63;1.55;;;;;;;;;;5071984;28;20029;-36
2021/07/04 07:37:11;;;;;;;2.72;1.20;;;;;;;;;;5072274;28;20056;-37
2021/07/04 07:39:38;;;;;;;5.28;1.48;;;;;;;;;;5071882;28;20498;-39
2021/07/04 07:42:05;;;;;;;5.63;1.33;;;;;;;;;;5067345;28;20024;-39
2021/07/04 07:44:32;;;;;;;6.22;1.60;;;;;;;;;;5072137;28;20059;-34
2021/07/04 07:46:59;;;;;;;3.78;1.30;;;;;;;;;;5071969;28;20029;-35
2021/07/04 07:49:26;;;;;;;3.88;1.20;;;;;;;;;;5071732;28;20052;-41
2021/07/04 07:51:54;;;;;;;4.88;1.17;;;;;;;;;;5066896;28;20036;-37
2021/07/04 07:54:21;;;;;;;3.35;1.63;;;;;;;;;;5071958;28;20032;-36
2021/07/04 07:56:49;;;;;;;3.20;1.15;;;;;;;;;;5071996;28;20432;-37
2021/07/04 07:59:16;;;;;;;3.05;1.20;;;;;;;;;;5071883;28;20028;-37
2021/07/04 08:01:43;;;;;;;4.15;1.30;;;;;;;;;;5068881;28;20037;-36
2021/07/04 08:04:10;;;;;;;4.40;1.30;;;;;;;;;;5069248;28;20499;-39
2021/07/04 08:06:37;;;;;;;4.88;1.20;;;;;;;;;;5071801;28;20033;-38
2021/07/04 08:09:05;;;;;;;4.68;1.20;;;;;;;;;;5071487;28;20021;-34
2021/07/04 08:11:32;;;;;;;2.25;1.17;;;;;;;;;;5071389;28;20028;-33
2021/07/04 08:13:59;;;;;;;2.63;1.20;;;;;;;;;;5067230;28;20020;-37
2021/07/04 08:16:26;;;;;;;3.95;1.40;;;;;;;;;;5071671;28;20032;-36
2021/07/04 08:18:53;;;;;;;5.53;1.30;;;;;;;;;;5071331;28;20543;-35
2021/07/04 08:21:20;;;;;;;2.92;1.30;;;;;;;;;;5071418;28;20025;-34
2021/07/04 08:23:47;;;;;;;3.25;1.10;;;;;;;;;;5066578;28;20031;-35
2021/07/04 08:26:14;;;;;;;4.95;1.30;;;;;;;;;;5053459;28;20032;-34
2021/07/04 08:28:41;;;;;;;3.05;1.20;;;;;;;;;;5071861;28;20074;-33
2021/07/04 08:31:08;;;;;;;4.18;1.50;;;;;;;;;;5070974;28;20073;-37
2021/07/04 08:33:35;;;;;;;5.13;1.42;;;;;;;;;;5066582;28;20050;-33
2021/07/04 08:36:03;;;;;;;4.07;1.20;;;;;;;;;;5071052;28;20141;-37
2021/07/04 08:38:30;;;;;;;1.83;1.08;;;;;;;;;;5071698;28;20021;-34
2021/07/04 08:40:57;;;;;;;3.63;1.30;;;;;;;;;;5070945;28;20028;-36
2021/07/04 08:43:28;;;;;;;4.03;1.63;;;;;;;;;;5066499;28;20024;-37
2021/07/04 08:45:55;;;;;;;4.55;1.45;;;;;;;;;;5071437;28;20375;-37
2021/07/04 08:48:22;;;;;;;2.38;1.20;;;;;;;;;;5071257;28;20025;-37
2021/07/04 08:50:49;;;;;;;2.60;1.00;;;;;;;;;;5070847;28;20491;-36
2021/07/04 08:53:16;;;;;;;3.20;1.40;;;;;;;;;;5066341;28;20576;-36
2021/07/04 08:55:44;;;;;;;3.22;1.20;;;;;;;;;;5071281;28;20016;-36
2021/07/04 08:58:11;;;;;;;4.82;1.25;;;;;;;;;;5071337;28;20028;-39
2021/07/04 09:00:39;;;;;;;4.65;1.35;;;;;;;;;;5071793;28;20040;-41
2021/07/04 09:03:25;;;;;;;3.00;1.13;;;;;;;;;;5071722;28;20040;-38
2021/07/04 09:05:52;;;;;;;4.40;1.48;;;;;;;;;;5074271;28;20388;-38
2021/07/04 09:08:20;;;;;;;4.75;1.45;;;;;;;;;;5074966;28;20073;-38
2021/07/04 09:11:07;;;;;;;3.67;0.90;;;;;;;;;;5074373;28;20096;-40
2021/07/04 09:13:34;;;;;;;4.38;1.10;;;;;;;;;;5070823;28;20040;-34
2021/07/04 09:16:05;;;;;;;3.70;1.30;;;;;;;;;;5073821;28;20031;-41
2021/07/04 09:18:32;;;;;;;2.90;1.38;;;;;;;;;;5074630;28;20031;-38
2021/07/04 09:20:59;;;;;;;2.60;1.05;;;;;;;;;;5074121;28;20036;-36
2021/07/04 09:23:36;;;;;;;3.03;0.90;;;;;;;;;;5073016;28;20028;-42
2021/07/04 09:26:04;;;;;;;2.83;0.98;;;;;;;;;;5071448;28;20103;-38
2021/07/04 09:28:31;;;;;;;2.72;0.93;;;;;;;;;;5074172;28;20027;-37
2021/07/04 09:30:59;;;;;;;2.88;1.20;;;;;;;;;;5074152;28;20040;-45
2021/07/04 09:33:26;;;;;;;2.58;1.05;;;;;;;;;;5074069;28;20028;-39
2021/07/04 09:36:00;;;;;;;3.92;1.00;;;;;;;;;;5069848;28;20062;-42
2021/07/04 09:38:31;;;;;;;2.70;1.13;;;;;;;;;;5074218;28;20021;-38
2021/07/04 09:40:58;;;;;;;4.45;1.20;;;;;;;;;;5073448;28;20039;-44
2021/07/04 09:43:27;;;;;;;2.88;1.00;;;;;;;;;;5073905;28;20488;-41
2021/07/04 09:45:55;;;;;;;2.63;0.98;;;;;;;;;;5069584;28;20048;-36
2021/07/04 09:48:31;;;;;;;3.78;1.30;;;;;;;;;;5074032;28;20457;-35
2021/07/04 09:50:59;;;;;;;1.88;0.90;;;;;;;;;;5073912;28;20024;-36
2021/07/04 09:53:32;;;;;;;4.70;0.90;;;;;;;;;;5073440;28;20160;-40
2021/07/04 09:56:08;;;;;;;1.92;0.80;;;;;;;;;;5069197;28;20024;-44
2021/07/04 09:58:35;;;;;;;4.55;1.00;;;;;;;;;;5074240;28;20029;-40
2021/07/04 10:01:03;;;;;;;3.30;1.17;;;;;;;;;;5073747;28;20039;-39
2021/07/04 10:03:30;;;;;;;2.22;0.90;;;;;;;;;;5073239;28;20044;-36
2021/07/04 10:06:01;;;;;;;1.85;1.00;;;;;;;;;;5068825;28;20029;-37
2021/07/04 10:08:28;;;;;;;2.65;1.10;;;;;;;;;;5055971;28;20145;-36
2021/07/04 10:11:05;;;;;;;2.15;0.90;;;;;;;;;;5073193;28;20032;-39
2021/07/04 10:13:32;;;;;;;2.90;1.20;;;;;;;;;;5072273;28;20032;-35
2021/07/04 10:16:00;;;;;;;1.30;0.90;;;;;;;;;;5069399;28;20472;-40
2021/07/04 10:18:27;;;;;;;4.35;0.70;;;;;;;;;;5073533;28;20424;-40
2021/07/04 10:20:54;;;;;;;3.15;1.05;;;;;;;;;;5073251;28;20103;-37
2021/07/04 10:23:23;;;;;;;2.15;0.95;;;;;;;;;;5073640;28;20082;-38
2021/07/04 10:25:50;;;;;;;2.45;1.08;;;;;;;;;;5068388;28;20033;-39
2021/07/04 10:28:28;;;;;;;3.25;0.70;;;;;;;;;;5073558;28;20446;-37
2021/07/04 10:30:56;;;;;;;3.05;1.02;;;;;;;;;;5073373;28;20103;-40
2021/07/04 10:33:24;;;;;;;2.03;0.85;;;;;;;;;;5073380;28;20353;-39
2021/07/04 10:36:00;;;;;;;2.95;1.05;;;;;;;;;;5068641;28;20116;-36
2021/07/04 10:38:37;;;;;;;3.53;0.85;;;;;;;;;;5073329;28;20039;-37
2021/07/04 10:41:08;;;;;;;4.15;1.10;;;;;;;;;;5073000;28;20016;-40
2021/07/04 10:43:52;;;;;;;4.07;0.90;;;;;;;;;;5072988;28;20198;-36
2021/07/04 10:46:19;;;;;;;2.50;1.20;;;;;;;;;;5068274;28;20116;-40
2021/07/04 10:48:54;;;;;;;1.52;0.85;;;;;;;;;;5073030;28;20032;-33
2021/07/04 10:51:22;;;;;;;2.40;0.73;;;;;;;;;;5072972;28;20052;-39
2021/07/04 10:53:56;;;;;;;2.72;0.70;;;;;;;;;;5072557;28;20546;-40
2021/07/04 10:56:38;;;;;;;2.88;1.17;;;;;;;;;;5068071;28;20032;-40
2021/07/04 10:59:06;;;;;;;2.42;0.82;;;;;;;;;;5072931;28;20024;-34
2021/07/04 11:01:54;;;;;;;4.22;1.23;;;;;;;;;;5072611;28;20017;-44
2021/07/04 11:04:33;;;;;;;2.10;0.88;;;;;;;;;;5072200;28;20059;-36
2021/07/04 11:07:02;;;;;;;2.25;0.88;;;;;;;;;;5068087;28;20032;-36
2021/07/04 11:09:49;;;;;;;2.92;1.00;;;;;;;;;;5072499;28;20025;-50
2021/07/04 11:12:29;;;;;;;3.90;1.00;;;;;;;;;;5041239;28;20042;-36
2021/07/04 11:15:19;;;;;;;2.67;0.85;;;;;;;;;;5071957;28;20424;-38
2021/07/04 11:18:01;;;;;;;1.52;0.80;;;;;;;;;;5055294;28;20044;-35
2021/07/04 11:20:28;;;;;;;2.63;0.80;;;;;;;;;;5072562;28;20032;-36
2021/07/04 11:22:59;;;;;;;3.53;0.75;;;;;;;;;;5072128;28;20388;-33
2021/07/04 11:25:37;;;;;;;5.35;0.68;;;;;;;;;;5071355;28;20428;-35
2021/07/04 11:28:20;;;;;;;1.17;0.70;;;;;;;;;;5067730;28;20032;-44
2021/07/04 11:30:48;;;;;;;1.45;0.70;;;;;;;;;;5072323;28;20070;-47
2021/07/04 11:33:29;;;;;;;3.47;1.10;;;;;;;;;;5072046;28;20025;-47
2021/07/04 11:35:59;;;;;;;1.30;0.75;;;;;;;;;;5071938;28;20383;-41
2021/07/04 11:38:27;;;;;;;2.92;1.00;;;;;;;;;;5067607;28;20028;-39
2021/07/04 11:40:55;;;;;;;2.05;0.80;;;;;;;;;;5071759;28;20082;-41
2021/07/04 11:43:23;;;;;;;1.75;0.65;;;;;;;;;;5072066;28;20488;-43
2021/07/04 11:46:16;;;;;;;5.80;1.00;;;;;;;;;;5071707;28;20036;-46
2021/07/04 11:48:44;;;;;;;8.15;1.80;;;;;;;;;;5064470;28;20123;-33
2021/07/04 11:51:13;;;;;;;1.67;0.73;;;;;;;;;;5071904;28;20392;-41
2021/07/04 11:53:49;;;;;;;2.00;0.80;;;;;;;;;;5071869;28;20031;-45
2021/07/04 11:56:16;;;;;;;1.60;0.75;;;;;;;;;;5071299;28;20070;-46
2021/07/04 11:58:44;;;;;;;2.88;1.23;;;;;;;;;;5067273;28;20078;-43
2021/07/04 12:01:24;;;;;;;1.55;0.60;;;;;;;;;;5071697;28;20048;-41
2021/07/04 12:03:53;;;;;;;3.10;1.10;;;;;;;;;;5071544;28;20044;-35
2021/07/04 12:06:20;;;;;;;2.58;0.75;;;;;;;;;;5071325;28;20036;-36
2021/07/04 12:08:59;;;;;;;2.10;0.90;;;;;;;;;;5067312;28;20036;-32
2021/07/04 12:11:44;;;;;;;2.25;0.80;;;;;;;;;;5071732;28;20507;-36
2021/07/04 12:14:21;;;;;;;1.85;0.80;;;;;;;;;;5071879;28;20025;-37
2021/07/04 12:16:48;;;;;;;2.35;1.00;;;;;;;;;;5071813;28;20021;-39
2021/07/04 12:19:29;;;;;;;1.98;0.88;;;;;;;;;;5066933;28;20036;-42
2021/07/04 12:21:57;;;;;;;4.25;1.00;;;;;;;;;;5053668;28;20103;-41
2021/07/04 12:24:37;;;;;;;2.40;0.80;;;;;;;;;;5071599;28;20020;-43
2021/07/04 12:27:04;;;;;;;1.58;0.90;;;;;;;;;;5071450;28;20059;-42
2021/07/04 12:29:32;;;;;;;4.82;0.68;;;;;;;;;;5066924;28;20016;-47
2021/07/04 12:32:05;;;;;;;2.10;1.05;;;;;;;;;;5071617;28;20031;-38
2021/07/04 12:34:33;;;;;;;3.20;1.00;;;;;;;;;;5071624;28;20475;-38
2021/07/04 12:37:01;;;;;;;1.85;0.70;;;;;;;;;;5074387;28;20059;-35
2021/07/04 12:39:32;;;;;;;2.35;0.73;;;;;;;;;;5070410;28;20107;-36
2021/07/04 12:41:59;;;;;;;2.90;0.70;;;;;;;;;;5075263;28;20024;-36
2021/07/04 12:44:26;;;;;;;3.55;1.20;;;;;;;;;;5075495;28;20036;-33
2021/07/04 12:46:54;;;;;;;5.63;1.20;;;;;;;;;;5074968;28;20032;-40
2021/07/04 12:49:21;;;;;;;3.10;0.90;;;;;;;;;;5070467;28;20024;-37
2021/07/04 12:51:48;;;;;;;2.22;1.10;;;;;;;;;;5075128;28;20084;-38
2021/07/04 12:54:19;;;;;;;3.22;0.80;;;;;;;;;;5075065;28;20035;-36
2021/07/04 12:56:49;;;;;;;2.63;0.88;;;;;;;;;;5073167;28;20031;-36
2021/07/04 12:59:26;;;;;;;2.35;0.80;;;;;;;;;;5071628;28;20036;-34
2021/07/04 13:01:55;;;;;;;1.83;0.73;;;;;;;;;;5072242;28;20417;-35
2021/07/04 13:04:22;;;;;;;1.60;0.70;;;;;;;;;;5073616;28;20040;-38
2021/07/04 13:07:02;;;;;;;1.92;0.77;;;;;;;;;;5074062;28;20109;-37
2021/07/04 13:09:38;;;;;;;1.92;0.90;;;;;;;;;;5068562;28;20040;-36
2021/07/04 13:12:08;;;;;;;4.80;0.95;;;;;;;;;;5064020;28;20016;-36
2021/07/04 13:14:54;;;;;;;4.68;1.38;;;;;;;;;;5065166;28;20140;-33
2021/07/04 13:17:23;;;;;;;6.18;1.08;;;;;;;;;;5062444;28;20020;-37
2021/07/04 13:19:54;;;;;;;3.47;0.95;;;;;;;;;;5065299;28;20032;-37
2021/07/04 13:22:23;;;;;;;3.10;0.90;;;;;;;;;;5067461;28;20090;-33
2021/07/04 13:25:03;;;;;;;6.70;1.10;;;;;;;;;;5071879;28;20033;-34
2021/07/04 13:27:31;;;;;;;6.30;0.90;;;;;;;;;;5065521;28;20063;-35
2021/07/04 13:30:06;;;;;;;5.63;1.58;;;;;;;;;;5060025;28;20029;-33
2021/07/04 13:32:33;;;;;;;4.22;0.95;;;;;;;;;;5054424;28;20032;-33
2021/07/04 13:35:00;;;;;;;4.97;0.98;;;;;;;;;;5053811;28;20033;-34
2021/07/04 13:37:28;;;;;;;3.92;1.00;;;;;;;;;;5059768;28;20021;-34
2021/07/04 13:39:58;;;;;;;5.10;1.05;;;;;;;;;;5059354;28;20028;-35
2021/07/04 13:42:25;;;;;;;6.40;1.10;;;;;;;;;;5066828;28;20021;-35
2021/07/04 13:44:59;;;;;;;8.38;1.08;;;;;;;;;;5066401;28;20055;-34
2021/07/04 13:47:26;;;;;;;6.63;2.03;;;;;;;;;;5064572;28;20025;-35
2021/07/04 13:49:54;;;;;;;2.70;0.93;;;;;;;;;;5067306;28;20032;-42
2021/07/04 13:52:21;;;;;;;6.65;1.15;;;;;;;;;;5068243;28;20067;-33
2021/07/04 13:54:48;;;;;;;7.28;1.40;;;;;;;;;;5068565;28;20048;-34
2021/07/04 13:57:16;;;;;;;6.03;1.15;;;;;;;;;;5069715;28;20028;-37
2021/07/04 13:59:44;;;;;;;6.85;1.20;;;;;;;;;;5056828;28;20033;-37
2021/07/04 14:02:11;;;;;;;5.80;1.05;;;;;;;;;;5053346;28;20096;-36
2021/07/04 14:04:38;;;;;;;14.02;1.10;;;;;;;;;;5055909;28;20062;-36
2021/07/04 14:07:07;;;;;;;2.72;1.10;;;;;;;;;;5057707;28;20035;-36
2021/07/04 14:09:36;;;;;;;5.35;1.30;;;;;;;;;;5054873;28;20167;-35
2021/07/04 14:12:04;;;;;;;2.80;1.02;;;;;;;;;;5056883;28;20033;-34
2021/07/04 14:14:31;;;;;;;6.13;1.67;;;;;;;;;;5053952;28;20032;-36
2021/07/04 14:17:01;;;;;;;7.70;2.00;;;;;;;;;;5056529;28;20029;-35
2021/07/04 14:19:28;;;;;;;8.43;2.63;;;;;;;;;;5053027;28;20021;-36
2021/07/04 14:21:55;;;;;;;8.43;3.42;;;;;;;;;;5055873;28;20103;-34
2021/07/04 14:24:22;;;;;;;11.45;4.85;;;;;;;;;;5052125;28;20456;-35
2021/07/04 14:26:49;;;;;;;12.63;5.07;;;;;;;;;;5061414;28;20029;-33
2021/07/04 14:29:34;;;;;;;13.98;5.50;;;;;;;;;;5056085;28;20473;-34
2021/07/04 14:32:01;;;;;;;8.38;4.78;;;;;;;;;;5061557;28;20037;-34
2021/07/04 14:34:28;;;;;;;16.73;5.50;;;;;;;;;;5059414;28;20079;-33
2021/07/04 14:36:55;;;;;;;16.75;6.10;;;;;;;;;;5062043;28;20039;-40
2021/07/04 14:39:22;;;;;;;15.55;6.07;;;;;;;;;;5052268;28;20088;-35
2021/07/04 14:41:49;;;;;;;13.85;5.38;;;;;;;;;;5058184;28;20032;-32
2021/07/04 14:44:17;;;;;;;18.52;6.00;;;;;;;;;;5048726;28;20021;-32
2021/07/04 14:46:44;;;;;;;17.88;6.50;;;;;;;;;;5056298;28;20024;-34
2021/07/04 14:49:11;;;;;;;18.63;6.20;;;;;;;;;;5066834;28;20143;-45